createdAt,value
2023-01-05T00:00:38.471Z,995.62
2023-01-05T00:01:38.401Z,995.64
2023-01-05T00:02:38.414Z,995.63
2023-01-05T00:03:38.345Z,995.64
2023-01-05T00:04:38.431Z,995.69
2023-01-05T00:05:38.322Z,995.73
2023-01-05T00:06:38.315Z,995.71
2023-01-05T00:07:38.317Z,995.80
2023-01-05T00:08:38.299Z,995.83
2023-01-05T00:09:38.278Z,995.95
2023-01-05T00:10:38.273Z,995.88
2023-01-05T00:11:38.261Z,995.93
2023-01-05T00:12:38.251Z,995.95
2023-01-05T00:13:38.249Z,995.90
2023-01-05T00:14:38.247Z,995.91
2023-01-05T00:15:38.204Z,995.87
2023-01-05T00:16:38.260Z,995.83
2023-01-05T00:17:38.221Z,995.89
2023-01-05T00:18:38.183Z,995.92
2023-01-05T00:19:38.178Z,995.87
2023-01-05T00:20:38.157Z,995.84
2023-01-05T00:21:38.156Z,995.83
2023-01-05T00:22:38.133Z,995.90
2023-01-05T00:23:38.121Z,995.85
2023-01-05T00:24:38.108Z,995.90
2023-01-05T00:25:38.123Z,995.89
2023-01-05T00:26:38.100Z,995.93
2023-01-05T00:27:38.095Z,995.89
2023-01-05T00:28:38.083Z,995.90
2023-01-05T00:29:38.065Z,995.85
2023-01-05T00:30:38.113Z,995.80
2023-01-05T00:31:38.120Z,995.85
2023-01-05T00:32:38.026Z,995.82
2023-01-05T00:33:38.033Z,995.87
2023-01-05T00:34:38.016Z,995.86
2023-01-05T00:35:37.994Z,995.91
2023-01-05T00:36:38.011Z,995.89
2023-01-05T00:37:38.023Z,995.88
2023-01-05T00:38:37.975Z,995.88
2023-01-05T00:39:37.956Z,995.88
2023-01-05T00:40:37.951Z,995.98
2023-01-05T00:41:37.931Z,995.91
2023-01-05T00:42:37.952Z,995.93
2023-01-05T00:43:37.918Z,995.95
2023-01-05T00:44:37.908Z,995.94
2023-01-05T00:45:37.975Z,995.86
2023-01-05T00:46:37.886Z,995.91
2023-01-05T00:47:37.869Z,995.88
2023-01-05T00:48:37.885Z,995.89
2023-01-05T00:49:37.871Z,995.92
2023-01-05T00:50:37.833Z,995.93
2023-01-05T00:51:37.836Z,995.92
2023-01-05T00:52:37.830Z,995.91
2023-01-05T00:53:37.806Z,995.85
2023-01-05T00:54:37.961Z,995.88
2023-01-05T00:55:37.804Z,995.87
2023-01-05T00:56:37.784Z,995.91
2023-01-05T00:57:37.793Z,995.92
2023-01-05T00:58:37.750Z,995.92
2023-01-05T00:59:37.746Z,995.90
2023-01-05T01:00:42.286Z,995.94
2023-01-05T01:01:37.901Z,995.97
2023-01-05T01:02:37.715Z,996.02
2023-01-05T01:03:37.813Z,995.95
2023-01-05T01:04:37.715Z,995.98
2023-01-05T01:05:37.682Z,995.98
2023-01-05T01:06:37.667Z,995.96
2023-01-05T01:07:37.667Z,995.95
2023-01-05T01:08:37.667Z,996.03
2023-01-05T01:09:37.644Z,996.03
2023-01-05T01:10:37.632Z,996.01
2023-01-05T01:11:37.620Z,996.01
2023-01-05T01:12:37.606Z,996.03
2023-01-05T01:13:37.624Z,996.00
2023-01-05T01:14:37.587Z,996.02
2023-01-05T01:15:37.579Z,996.10
2023-01-05T01:16:37.618Z,996.02
2023-01-05T01:17:37.582Z,996.02
2023-01-05T01:18:37.553Z,996.05
2023-01-05T01:19:37.557Z,996.00
2023-01-05T01:20:37.558Z,995.99
2023-01-05T01:21:37.521Z,996.02
2023-01-05T01:22:37.519Z,996.07
2023-01-05T01:23:37.495Z,996.02
2023-01-05T01:24:37.492Z,996.04
2023-01-05T01:25:37.504Z,996.03
2023-01-05T01:26:37.460Z,996.08
2023-01-05T01:27:37.465Z,996.07
2023-01-05T01:28:37.449Z,996.05
2023-01-05T01:29:37.430Z,996.01
2023-01-05T01:30:37.474Z,996.00
2023-01-05T01:31:37.418Z,996.00
2023-01-05T01:32:37.405Z,996.01
2023-01-05T01:33:37.415Z,996.07
2023-01-05T01:34:37.376Z,996.06
2023-01-05T01:35:37.375Z,995.96
2023-01-05T01:36:37.368Z,996.02
2023-01-05T01:37:37.354Z,996.07
2023-01-05T01:38:37.334Z,996.06
2023-01-05T01:39:37.335Z,996.18
2023-01-05T01:40:37.307Z,996.09
2023-01-05T01:41:37.314Z,996.07
2023-01-05T01:42:37.292Z,996.16
2023-01-05T01:43:37.276Z,996.08
2023-01-05T01:44:37.273Z,996.15
2023-01-05T01:45:37.297Z,996.16
2023-01-05T01:46:37.273Z,996.13
2023-01-05T01:47:37.252Z,996.18
2023-01-05T01:48:37.226Z,996.19
2023-01-05T01:49:37.230Z,996.22
2023-01-05T01:50:37.216Z,996.18
2023-01-05T01:51:37.197Z,996.20
2023-01-05T01:52:37.213Z,996.18
2023-01-05T01:53:37.175Z,996.17
2023-01-05T01:54:37.189Z,996.19
2023-01-05T01:55:37.166Z,996.07
2023-01-05T01:56:37.152Z,996.13
2023-01-05T01:57:37.141Z,996.20
2023-01-05T01:58:37.138Z,996.15
2023-01-05T01:59:37.110Z,996.15
2023-01-05T02:00:37.132Z,996.18
2023-01-05T02:01:37.208Z,996.07
2023-01-05T02:02:37.238Z,996.12
2023-01-05T02:03:37.092Z,996.13
2023-01-05T02:04:37.122Z,996.11
2023-01-05T02:05:37.073Z,996.17
2023-01-05T02:06:37.048Z,996.17
2023-01-05T02:07:37.038Z,996.26
2023-01-05T02:08:37.044Z,996.28
2023-01-05T02:09:37.017Z,996.29
2023-01-05T02:10:37.000Z,996.36
2023-01-05T02:11:36.987Z,996.39
2023-01-05T02:12:36.978Z,996.41
2023-01-05T02:13:36.998Z,996.49
2023-01-05T02:14:36.952Z,996.42
2023-01-05T02:15:36.961Z,996.42
2023-01-05T02:16:36.943Z,996.42
2023-01-05T02:17:36.934Z,996.48
2023-01-05T02:18:36.908Z,996.47
2023-01-05T02:19:36.934Z,996.32
2023-01-05T02:20:36.923Z,996.29
2023-01-05T02:21:36.899Z,996.37
2023-01-05T02:22:36.871Z,996.46
2023-01-05T02:23:36.862Z,996.35
2023-01-05T02:24:36.857Z,996.40
2023-01-05T02:25:36.856Z,996.41
2023-01-05T02:26:36.829Z,996.47
2023-01-05T02:27:36.825Z,996.43
2023-01-05T02:28:36.815Z,996.40
2023-01-05T02:29:36.812Z,996.41
2023-01-05T02:30:36.825Z,996.42
2023-01-05T02:31:36.787Z,996.39
2023-01-05T02:32:36.773Z,996.43
2023-01-05T02:33:36.755Z,996.41
2023-01-05T02:34:36.755Z,996.40
2023-01-05T02:35:36.734Z,996.48
2023-01-05T02:36:36.712Z,996.47
2023-01-05T02:37:36.935Z,996.48
2023-01-05T02:38:36.730Z,996.56
2023-01-05T02:39:36.698Z,996.51
2023-01-05T02:40:36.696Z,996.50
2023-01-05T02:41:36.670Z,996.49
2023-01-05T02:42:36.658Z,996.54
2023-01-05T02:43:36.644Z,996.64
2023-01-05T02:44:36.672Z,996.54
2023-01-05T02:45:36.626Z,996.56
2023-01-05T02:46:36.677Z,996.57
2023-01-05T02:47:36.594Z,996.64
2023-01-05T02:48:36.604Z,996.62
2023-01-05T02:49:36.585Z,996.66
2023-01-05T02:50:36.588Z,996.69
2023-01-05T02:51:36.565Z,996.64
2023-01-05T02:52:36.548Z,996.62
2023-01-05T02:53:36.528Z,996.64
2023-01-05T02:54:36.523Z,996.65
2023-01-05T02:55:36.508Z,996.60
2023-01-05T02:56:36.515Z,996.69
2023-01-05T02:57:36.498Z,996.61
2023-01-05T02:58:36.479Z,996.61
2023-01-05T02:59:36.482Z,996.60
2023-01-05T03:00:36.461Z,996.63
2023-01-05T03:01:36.534Z,996.58
2023-01-05T03:02:36.608Z,996.67
2023-01-05T03:03:36.549Z,996.52
2023-01-05T03:04:36.457Z,996.61
2023-01-05T03:05:36.408Z,996.61
2023-01-05T03:06:36.410Z,996.57
2023-01-05T03:07:36.386Z,996.61
2023-01-05T03:08:36.375Z,996.57
2023-01-05T03:09:36.355Z,996.58
2023-01-05T03:10:36.363Z,996.61
2023-01-05T03:11:36.328Z,996.58
2023-01-05T03:12:36.321Z,996.67
2023-01-05T03:13:36.317Z,996.63
2023-01-05T03:14:36.315Z,996.59
2023-01-05T03:15:36.358Z,996.72
2023-01-05T03:16:36.307Z,996.72
2023-01-05T03:17:36.281Z,996.72
2023-01-05T03:18:36.275Z,996.67
2023-01-05T03:19:36.258Z,996.68
2023-01-05T03:20:36.251Z,996.63
2023-01-05T03:21:36.232Z,996.67
2023-01-05T03:22:36.215Z,996.65
2023-01-05T03:23:36.220Z,996.62
2023-01-05T03:24:36.223Z,996.60
2023-01-05T03:25:36.175Z,996.67
2023-01-05T03:26:36.173Z,996.67
2023-01-05T03:27:36.153Z,996.66
2023-01-05T03:28:36.158Z,996.65
2023-01-05T03:29:36.156Z,996.64
2023-01-05T03:30:36.232Z,996.65
2023-01-05T03:31:36.117Z,996.72
2023-01-05T03:32:36.100Z,996.74
2023-01-05T03:33:36.099Z,996.74
2023-01-05T03:34:36.086Z,996.80
2023-01-05T03:35:36.096Z,996.75
2023-01-05T03:36:36.066Z,996.72
2023-01-05T03:37:36.050Z,996.73
2023-01-05T03:38:36.052Z,996.76
2023-01-05T03:39:36.045Z,996.77
2023-01-05T03:40:36.032Z,996.85
2023-01-05T03:41:36.004Z,996.80
2023-01-05T03:42:36.014Z,996.79
2023-01-05T03:43:35.999Z,996.81
2023-01-05T03:44:36.006Z,996.80
2023-01-05T03:45:35.974Z,996.80
2023-01-05T03:46:36.061Z,996.77
2023-01-05T03:47:35.961Z,996.80
2023-01-05T03:48:35.955Z,996.77
2023-01-05T03:49:35.918Z,996.82
2023-01-05T03:50:35.917Z,996.77
2023-01-05T03:51:41.479Z,996.74
2023-01-05T03:52:35.910Z,996.79
2023-01-05T03:53:35.907Z,996.76
2023-01-05T03:54:35.877Z,996.80
2023-01-05T03:55:35.867Z,996.72
2023-01-05T03:56:35.869Z,996.69
2023-01-05T03:57:35.843Z,996.77
2023-01-05T03:58:35.823Z,996.77
2023-01-05T03:59:35.830Z,996.79
2023-01-05T04:00:35.801Z,996.85
2023-01-05T04:01:36.000Z,996.84
2023-01-05T04:02:35.946Z,996.82
2023-01-05T04:03:35.804Z,996.85
2023-01-05T04:04:35.762Z,996.82
2023-01-05T04:05:35.771Z,996.91
2023-01-05T04:06:35.736Z,996.83
2023-01-05T04:07:35.739Z,996.84
2023-01-05T04:08:35.747Z,996.79
2023-01-05T04:09:35.705Z,996.77
2023-01-05T04:10:35.731Z,996.83
2023-01-05T04:11:35.676Z,996.84
2023-01-05T04:12:35.674Z,996.90
2023-01-05T04:13:35.674Z,996.94
2023-01-05T04:14:35.665Z,996.86
2023-01-05T04:15:35.744Z,996.96
2023-01-05T04:16:35.766Z,996.93
2023-01-05T04:17:35.619Z,996.93
2023-01-05T04:18:35.614Z,996.90
2023-01-05T04:19:35.595Z,996.85
2023-01-05T04:20:35.583Z,996.87
2023-01-05T04:21:35.571Z,996.80
2023-01-05T04:22:35.566Z,996.78
2023-01-05T04:23:35.558Z,996.75
2023-01-05T04:24:35.582Z,996.84
2023-01-05T04:25:35.567Z,996.80
2023-01-05T04:26:35.542Z,996.88
2023-01-05T04:27:35.512Z,996.85
2023-01-05T04:28:35.496Z,996.82
2023-01-05T04:29:35.545Z,996.87
2023-01-05T04:30:35.487Z,996.93
2023-01-05T04:31:35.550Z,996.90
2023-01-05T04:32:35.465Z,996.91
2023-01-05T04:33:35.462Z,996.87
2023-01-05T04:34:35.433Z,996.87
2023-01-05T04:35:35.416Z,996.88
2023-01-05T04:36:35.456Z,996.87
2023-01-05T04:37:35.415Z,996.85
2023-01-05T04:38:35.386Z,996.86
2023-01-05T04:39:35.390Z,996.85
2023-01-05T04:40:35.379Z,996.89
2023-01-05T04:41:35.399Z,996.85
2023-01-05T04:42:35.356Z,996.89
2023-01-05T04:43:35.338Z,996.83
2023-01-05T04:44:35.329Z,996.85
2023-01-05T04:45:35.326Z,996.88
2023-01-05T04:46:35.345Z,996.89
2023-01-05T04:47:35.295Z,996.89
2023-01-05T04:48:35.274Z,996.91
2023-01-05T04:49:35.261Z,996.99
2023-01-05T04:50:35.263Z,997.01
2023-01-05T04:51:35.293Z,997.03
2023-01-05T04:52:35.243Z,996.97
2023-01-05T04:53:35.228Z,997.01
2023-01-05T04:54:35.209Z,997.01
2023-01-05T04:55:35.206Z,996.98
2023-01-05T04:56:35.211Z,997.01
2023-01-05T04:57:35.164Z,997.00
2023-01-05T04:58:35.164Z,997.04
2023-01-05T04:59:35.169Z,997.01
2023-01-05T05:00:35.154Z,997.00
2023-01-05T05:01:35.254Z,997.01
2023-01-05T05:02:35.230Z,997.02
2023-01-05T05:03:35.209Z,997.05
2023-01-05T05:04:35.110Z,997.01
2023-01-05T05:05:35.117Z,997.06
2023-01-05T05:06:35.079Z,997.02
2023-01-05T05:07:35.069Z,997.00
2023-01-05T05:08:35.072Z,997.05
2023-01-05T05:09:35.053Z,997.00
2023-01-05T05:10:35.037Z,996.99
2023-01-05T05:11:35.031Z,996.98
2023-01-05T05:12:35.026Z,996.99
2023-01-05T05:13:35.018Z,996.99
2023-01-05T05:14:34.993Z,997.10
2023-01-05T05:15:34.976Z,997.09
2023-01-05T05:16:34.976Z,997.04
2023-01-05T05:17:34.962Z,997.07
2023-01-05T05:18:34.981Z,997.09
2023-01-05T05:19:34.948Z,997.13
2023-01-05T05:20:34.925Z,997.17
2023-01-05T05:21:34.906Z,997.14
2023-01-05T05:22:34.915Z,997.15
2023-01-05T05:23:34.893Z,997.11
2023-01-05T05:24:34.894Z,997.05
2023-01-05T05:25:34.875Z,997.17
2023-01-05T05:26:34.865Z,997.08
2023-01-05T05:27:34.863Z,997.10
2023-01-05T05:28:34.835Z,997.15
2023-01-05T05:29:34.856Z,997.12
2023-01-05T05:30:34.813Z,997.10
2023-01-05T05:31:34.851Z,997.13
2023-01-05T05:32:38.204Z,997.18
2023-01-05T05:33:34.842Z,997.18
2023-01-05T05:34:34.782Z,997.20
2023-01-05T05:35:34.770Z,997.17
2023-01-05T05:36:34.744Z,997.23
2023-01-05T05:37:34.742Z,997.30
2023-01-05T05:38:34.723Z,997.35
2023-01-05T05:39:34.738Z,997.34
2023-01-05T05:40:34.708Z,997.30
2023-01-05T05:41:34.704Z,997.31
2023-01-05T05:42:34.681Z,997.33
2023-01-05T05:43:34.681Z,997.37
2023-01-05T05:44:34.701Z,997.37
2023-01-05T05:45:34.659Z,997.37
2023-01-05T05:46:34.798Z,997.35
2023-01-05T05:47:34.637Z,997.38
2023-01-05T05:48:34.617Z,997.32
2023-01-05T05:49:34.622Z,997.39
2023-01-05T05:50:34.610Z,997.42
2023-01-05T05:51:34.611Z,997.41
2023-01-05T05:52:34.600Z,997.35
2023-01-05T05:53:34.601Z,997.39
2023-01-05T05:54:34.556Z,997.40
2023-01-05T05:55:34.552Z,997.38
2023-01-05T05:56:34.547Z,997.46
2023-01-05T05:57:34.541Z,997.43
2023-01-05T05:58:34.530Z,997.42
2023-01-05T05:59:34.507Z,997.44
2023-01-05T06:00:34.499Z,997.42
2023-01-05T06:01:34.623Z,997.47
2023-01-05T06:02:34.590Z,997.52
2023-01-05T06:03:34.515Z,997.58
2023-01-05T06:04:34.453Z,997.60
2023-01-05T06:05:34.454Z,997.55
2023-01-05T06:06:34.455Z,997.55
2023-01-05T06:07:34.429Z,997.56
2023-01-05T06:08:34.433Z,997.59
2023-01-05T06:09:34.410Z,997.58
2023-01-05T06:10:34.405Z,997.67
2023-01-05T06:11:34.379Z,997.69
2023-01-05T06:12:34.376Z,997.69
2023-01-05T06:13:34.346Z,997.68
2023-01-05T06:14:34.363Z,997.64
2023-01-05T06:15:34.330Z,997.56
2023-01-05T06:16:34.410Z,997.62
2023-01-05T06:17:34.313Z,997.67
2023-01-05T06:18:34.309Z,997.69
2023-01-05T06:19:34.310Z,997.72
2023-01-05T06:20:34.292Z,997.70
2023-01-05T06:21:34.283Z,997.68
2023-01-05T06:22:34.259Z,997.71
2023-01-05T06:23:34.254Z,997.72
2023-01-05T06:24:34.251Z,997.80
2023-01-05T06:25:34.247Z,997.70
2023-01-05T06:26:34.209Z,997.78
2023-01-05T06:27:34.211Z,997.79
2023-01-05T06:28:34.191Z,997.78
2023-01-05T06:29:34.190Z,997.80
2023-01-05T06:30:34.181Z,997.83
2023-01-05T06:31:34.267Z,997.79
2023-01-05T06:32:34.162Z,997.73
2023-01-05T06:33:34.147Z,997.80
2023-01-05T06:34:34.131Z,997.80
2023-01-05T06:35:34.126Z,997.76
2023-01-05T06:36:34.130Z,997.77
2023-01-05T06:37:34.108Z,997.77
2023-01-05T06:38:34.090Z,997.81
2023-01-05T06:39:34.087Z,997.84
2023-01-05T06:40:34.085Z,997.86
2023-01-05T06:41:34.097Z,997.94
2023-01-05T06:42:34.048Z,997.94
2023-01-05T06:43:34.046Z,997.88
2023-01-05T06:44:34.031Z,997.83
2023-01-05T06:45:34.098Z,997.78
2023-01-05T06:46:33.996Z,997.88
2023-01-05T06:47:34.002Z,997.96
2023-01-05T06:48:34.001Z,998.00
2023-01-05T06:49:33.969Z,997.98
2023-01-05T06:50:33.966Z,997.97
2023-01-05T06:51:33.965Z,997.90
2023-01-05T06:52:33.938Z,997.94
2023-01-05T06:53:33.978Z,998.01
2023-01-05T06:54:33.928Z,998.02
2023-01-05T06:55:33.927Z,998.01
2023-01-05T06:56:33.950Z,998.01
2023-01-05T06:57:33.914Z,997.98
2023-01-05T06:58:33.879Z,997.99
2023-01-05T06:59:33.863Z,997.99
2023-01-05T07:00:33.905Z,998.09
2023-01-05T07:01:34.562Z,997.99
2023-01-05T07:02:33.831Z,998.01
2023-01-05T07:03:33.912Z,998.03
2023-01-05T07:04:33.834Z,998.03
2023-01-05T07:05:33.799Z,998.06
2023-01-05T07:06:33.800Z,998.08
2023-01-05T07:07:33.806Z,998.03
2023-01-05T07:08:33.777Z,998.06
2023-01-05T07:09:33.762Z,998.02
2023-01-05T07:10:33.753Z,998.04
2023-01-05T07:11:33.758Z,998.09
2023-01-05T07:12:33.734Z,998.11
2023-01-05T07:13:33.745Z,998.12
2023-01-05T07:14:33.709Z,998.18
2023-01-05T07:15:33.721Z,998.19
2023-01-05T07:16:33.749Z,998.23
2023-01-05T07:17:33.674Z,998.21
2023-01-05T07:18:33.685Z,998.19
2023-01-05T07:19:33.663Z,998.15
2023-01-05T07:20:33.651Z,998.15
2023-01-05T07:21:33.649Z,998.17
2023-01-05T07:22:33.648Z,998.18
2023-01-05T07:23:33.638Z,998.22
2023-01-05T07:24:33.614Z,998.24
2023-01-05T07:25:33.605Z,998.22
2023-01-05T07:26:33.593Z,998.21
2023-01-05T07:27:33.588Z,998.21
2023-01-05T07:28:33.583Z,998.24
2023-01-05T07:29:33.593Z,998.28
2023-01-05T07:30:33.534Z,998.28
2023-01-05T07:31:33.552Z,998.26
2023-01-05T07:32:33.544Z,998.28
2023-01-05T07:33:39.030Z,998.28
2023-01-05T07:34:33.515Z,998.26
2023-01-05T07:35:33.492Z,998.31
2023-01-05T07:36:33.477Z,998.34
2023-01-05T07:37:33.473Z,998.26
2023-01-05T07:38:33.454Z,998.27
2023-01-05T07:39:33.448Z,998.29
2023-01-05T07:40:33.475Z,998.26
2023-01-05T07:41:33.476Z,998.34
2023-01-05T07:42:33.465Z,998.30
2023-01-05T07:43:33.412Z,998.35
2023-01-05T07:44:33.384Z,998.42
2023-01-05T07:45:33.419Z,998.36
2023-01-05T07:46:33.373Z,998.38
2023-01-05T07:47:33.358Z,998.39
2023-01-05T07:48:33.371Z,998.48
2023-01-05T07:49:33.334Z,998.46
2023-01-05T07:50:33.327Z,998.46
2023-01-05T07:51:33.319Z,998.45
2023-01-05T07:52:33.305Z,998.45
2023-01-05T07:53:38.121Z,998.47
2023-01-05T07:54:33.314Z,998.43
2023-01-05T07:55:33.275Z,998.43
2023-01-05T07:56:33.272Z,998.50
2023-01-05T07:57:33.266Z,998.49
2023-01-05T07:58:33.258Z,998.54
2023-01-05T07:59:33.257Z,998.53
2023-01-05T08:00:33.226Z,998.57
2023-01-05T08:01:33.386Z,998.55
2023-01-05T08:02:36.114Z,998.54
2023-01-05T08:03:33.188Z,998.61
2023-01-05T08:04:33.231Z,998.55
2023-01-05T08:05:33.167Z,998.63
2023-01-05T08:06:33.545Z,998.68
2023-01-05T08:07:33.153Z,998.68
2023-01-05T08:08:33.160Z,998.70
2023-01-05T08:09:33.119Z,998.75
2023-01-05T08:10:33.134Z,998.75
2023-01-05T08:11:33.110Z,998.77
2023-01-05T08:12:33.105Z,998.82
2023-01-05T08:13:33.095Z,998.73
2023-01-05T08:14:33.065Z,998.78
2023-01-05T08:15:33.082Z,998.83
2023-01-05T08:16:33.106Z,998.84
2023-01-05T08:17:33.031Z,998.83
2023-01-05T08:18:33.030Z,998.82
2023-01-05T08:19:33.012Z,998.85
2023-01-05T08:20:33.003Z,998.84
2023-01-05T08:21:33.042Z,998.89
2023-01-05T08:22:32.990Z,998.84
2023-01-05T08:23:32.981Z,998.90
2023-01-05T08:24:32.969Z,998.89
2023-01-05T08:25:32.949Z,998.88
2023-01-05T08:26:33.007Z,998.85
2023-01-05T08:27:32.951Z,998.85
2023-01-05T08:28:35.561Z,998.87
2023-01-05T08:29:32.918Z,998.93
2023-01-05T08:30:32.905Z,998.95
2023-01-05T08:31:32.932Z,998.99
2023-01-05T08:32:32.883Z,998.98
2023-01-05T08:33:32.884Z,998.98
2023-01-05T08:34:34.897Z,998.96
2023-01-05T08:35:32.840Z,998.99
2023-01-05T08:36:32.847Z,998.97
2023-01-05T08:37:32.820Z,998.96
2023-01-05T08:38:32.822Z,998.96
2023-01-05T08:39:32.833Z,999.03
2023-01-05T08:40:32.789Z,999.03
2023-01-05T08:41:32.800Z,999.02
2023-01-05T08:42:32.762Z,999.08
2023-01-05T08:43:32.783Z,999.02
2023-01-05T08:44:32.750Z,999.08
2023-01-05T08:45:32.787Z,999.10
2023-01-05T08:46:32.736Z,999.01
2023-01-05T08:47:32.708Z,999.05
2023-01-05T08:48:32.713Z,999.07
2023-01-05T08:49:32.687Z,999.13
2023-01-05T08:50:32.687Z,999.12
2023-01-05T08:51:32.685Z,999.19
2023-01-05T08:52:32.659Z,999.11
2023-01-05T08:53:32.649Z,999.16
2023-01-05T08:54:32.642Z,999.19
2023-01-05T08:55:32.647Z,999.18
2023-01-05T08:56:38.354Z,999.15
2023-01-05T08:57:32.617Z,999.20
2023-01-05T08:58:32.591Z,999.24
2023-01-05T08:59:32.602Z,999.19
2023-01-05T09:00:32.607Z,999.22
2023-01-05T09:01:32.724Z,999.28
2023-01-05T09:02:32.703Z,999.28
2023-01-05T09:03:32.569Z,999.31
2023-01-05T09:04:32.551Z,999.30
2023-01-05T09:05:32.527Z,999.29
2023-01-05T09:06:32.518Z,999.31
2023-01-05T09:07:32.498Z,999.28
2023-01-05T09:08:32.487Z,999.34
2023-01-05T09:09:32.480Z,999.30
2023-01-05T09:10:32.462Z,999.31
2023-01-05T09:11:32.461Z,999.30
2023-01-05T09:12:33.403Z,999.27
2023-01-05T09:13:32.429Z,999.31
2023-01-05T09:14:32.445Z,999.28
2023-01-05T09:15:32.417Z,999.32
2023-01-05T09:17:05.121Z,999.32
2023-01-05T09:17:32.471Z,999.36
2023-01-05T09:18:32.373Z,999.32
2023-01-05T09:19:32.373Z,999.38
2023-01-05T09:20:39.413Z,999.36
2023-01-05T09:21:32.438Z,999.36
2023-01-05T09:22:32.349Z,999.46
2023-01-05T09:23:32.334Z,999.48
2023-01-05T09:24:32.326Z,999.40
2023-01-05T09:25:32.300Z,999.37
2023-01-05T09:26:32.290Z,999.49
2023-01-05T09:27:32.305Z,999.46
2023-01-05T09:28:32.272Z,999.46
2023-01-05T09:29:32.298Z,999.46
2023-01-05T09:30:40.971Z,999.47
2023-01-05T09:31:32.265Z,999.50
2023-01-05T09:32:32.242Z,999.53
2023-01-05T09:33:32.247Z,999.52
2023-01-05T09:34:32.230Z,999.52
2023-01-05T09:35:32.194Z,999.55
2023-01-05T09:36:32.213Z,999.54
2023-01-05T09:37:32.174Z,999.57
2023-01-05T09:38:32.160Z,999.59
2023-01-05T09:39:32.166Z,999.56
2023-01-05T09:40:32.143Z,999.58
2023-01-05T09:41:32.123Z,999.65
2023-01-05T09:42:32.128Z,999.76
2023-01-05T09:43:32.098Z,999.74
2023-01-05T09:44:32.103Z,999.77
2023-01-05T09:45:32.093Z,999.73
2023-01-05T09:46:32.125Z,999.79
2023-01-05T09:47:32.065Z,999.79
2023-01-05T09:48:32.177Z,999.79
2023-01-05T09:49:32.055Z,999.80
2023-01-05T09:50:32.045Z,999.83
2023-01-05T09:51:32.013Z,999.85
2023-01-05T09:52:37.841Z,999.84
2023-01-05T09:53:31.994Z,999.88
2023-01-05T09:54:31.984Z,999.89
2023-01-05T09:55:31.976Z,999.85
2023-01-05T09:57:08.056Z,999.89
2023-01-05T09:57:31.969Z,999.87
2023-01-05T09:58:31.949Z,999.88
2023-01-05T09:59:31.926Z,999.86
2023-01-05T10:00:31.946Z,999.91
2023-01-05T10:01:31.962Z,999.97
2023-01-05T10:02:31.907Z,999.93
2023-01-05T10:04:02.429Z,999.89
2023-01-05T10:04:31.968Z,1000.00
2023-01-05T10:05:31.988Z,999.96
2023-01-05T10:06:31.874Z,999.98
2023-01-05T10:07:31.853Z,999.93
2023-01-05T10:08:31.828Z,1000.00
2023-01-05T10:09:31.817Z,999.93
2023-01-05T10:10:31.839Z,999.94
2023-01-05T10:11:31.801Z,999.99
2023-01-05T10:12:31.784Z,1000.01
2023-01-05T10:13:31.785Z,999.99
2023-01-05T10:14:31.782Z,999.99
2023-01-05T10:15:31.775Z,999.99
2023-01-05T10:16:31.779Z,999.97
2023-01-05T10:17:47.011Z,999.95
2023-01-05T10:18:31.781Z,999.97
2023-01-05T10:19:31.730Z,1000.02
2023-01-05T10:20:31.708Z,999.98
2023-01-05T10:21:31.691Z,1000.00
2023-01-05T10:22:36.840Z,1000.05
2023-01-05T10:23:31.671Z,1000.01
2023-01-05T10:24:31.674Z,1000.03
2023-01-05T10:25:31.663Z,1000.03
2023-01-05T10:26:51.024Z,1000.02
2023-01-05T10:27:31.638Z,1000.03
2023-01-05T10:28:31.630Z,1000.07
2023-01-05T10:29:31.610Z,1000.08
2023-01-05T10:30:31.599Z,1000.03
2023-01-05T10:31:31.618Z,1000.02
2023-01-05T10:32:31.602Z,1000.06
2023-01-05T10:33:39.364Z,1000.07
2023-01-05T10:34:31.567Z,1000.12
2023-01-05T10:35:59.542Z,1000.09
2023-01-05T10:37:06.036Z,1000.19
2023-01-05T10:37:31.650Z,1000.15
2023-01-05T10:38:31.580Z,1000.10
2023-01-05T10:39:31.761Z,1000.09
2023-01-05T10:40:31.521Z,1000.11
2023-01-05T10:41:31.820Z,1000.12
2023-01-05T10:42:32.859Z,1000.12
2023-01-05T10:43:31.697Z,1000.11
2023-01-05T10:44:31.442Z,1000.16
2023-01-05T10:45:31.428Z,1000.15
2023-01-05T10:46:38.092Z,1000.15
2023-01-05T10:47:31.455Z,1000.13
2023-01-05T10:48:31.485Z,1000.16
2023-01-05T10:49:31.407Z,1000.16
2023-01-05T10:50:31.817Z,1000.15
2023-01-05T10:51:31.419Z,1000.16
2023-01-05T10:52:31.373Z,1000.18
2023-01-05T10:53:31.380Z,1000.16
2023-01-05T10:54:31.366Z,1000.14
2023-01-05T10:55:31.343Z,1000.14
2023-01-05T10:56:31.327Z,1000.12
2023-01-05T10:57:35.130Z,1000.17
2023-01-05T10:58:31.310Z,1000.18
2023-01-05T10:59:31.619Z,1000.12
2023-01-05T11:00:31.298Z,1000.17
2023-01-05T11:01:31.427Z,1000.20
2023-01-05T11:02:31.413Z,1000.24
2023-01-05T11:03:57.317Z,1000.27
2023-01-05T11:04:35.441Z,1000.25
2023-01-05T11:05:31.276Z,1000.21
2023-01-05T11:06:31.228Z,1000.29
2023-01-05T11:07:31.203Z,1000.28
2023-01-05T11:08:31.201Z,1000.27
2023-01-05T11:09:31.195Z,1000.25
2023-01-05T11:10:31.188Z,1000.28
2023-01-05T11:11:31.169Z,1000.27
2023-01-05T11:12:31.144Z,1000.24
2023-01-05T11:13:31.144Z,1000.32
2023-01-05T11:14:31.185Z,1000.24
2023-01-05T11:15:31.171Z,1000.30
2023-01-05T11:16:31.102Z,1000.25
2023-01-05T11:17:31.109Z,1000.25
2023-01-05T11:18:31.089Z,1000.27
2023-01-05T11:19:31.093Z,1000.27
2023-01-05T11:20:31.075Z,1000.25
2023-01-05T11:21:31.081Z,1000.29
2023-01-05T11:22:31.054Z,1000.27
2023-01-05T11:23:31.038Z,1000.31
2023-01-05T11:24:31.061Z,1000.27
2023-01-05T11:25:31.042Z,1000.26
2023-01-05T11:26:31.008Z,1000.31
2023-01-05T11:27:30.999Z,1000.29
2023-01-05T11:28:30.988Z,1000.26
2023-01-05T11:29:30.981Z,1000.23
2023-01-05T11:30:30.970Z,1000.24
2023-01-05T11:31:31.001Z,1000.21
2023-01-05T11:32:30.953Z,1000.26
2023-01-05T11:33:30.928Z,1000.23
2023-01-05T11:34:30.917Z,1000.23
2023-01-05T11:35:30.926Z,1000.23
2023-01-05T11:36:30.903Z,1000.27
2023-01-05T11:37:30.887Z,1000.27
2023-01-05T11:38:30.870Z,1000.29
2023-01-05T11:39:30.943Z,1000.24
2023-01-05T11:40:30.840Z,1000.25
2023-01-05T11:41:30.847Z,1000.25
2023-01-05T11:42:30.856Z,1000.25
2023-01-05T11:43:30.817Z,1000.21
2023-01-05T11:44:30.808Z,1000.20
2023-01-05T11:45:30.796Z,1000.29
2023-01-05T11:46:30.823Z,1000.22
2023-01-05T11:47:30.802Z,1000.25
2023-01-05T11:48:30.784Z,1000.27
2023-01-05T11:49:30.777Z,1000.25
2023-01-05T11:50:30.761Z,1000.24
2023-01-05T11:51:30.736Z,1000.24
2023-01-05T11:52:30.737Z,1000.25
2023-01-05T11:53:30.717Z,1000.27
2023-01-05T11:54:30.693Z,1000.29
2023-01-05T11:55:30.764Z,1000.30
2023-01-05T11:56:30.682Z,1000.30
2023-01-05T11:57:30.668Z,1000.29
2023-01-05T11:58:30.658Z,1000.30
2023-01-05T11:59:30.658Z,1000.29
2023-01-05T12:00:30.660Z,1000.26
2023-01-05T12:01:30.708Z,1000.23
2023-01-05T12:02:30.700Z,1000.18
2023-01-05T12:03:30.637Z,1000.24
2023-01-05T12:04:30.705Z,1000.25
2023-01-05T12:05:30.588Z,1000.26
2023-01-05T12:06:30.589Z,1000.28
2023-01-05T12:07:30.567Z,1000.23
2023-01-05T12:08:30.552Z,1000.23
2023-01-05T12:09:34.612Z,1000.23
2023-01-05T12:10:30.552Z,1000.33
2023-01-05T12:11:30.535Z,1000.29
2023-01-05T12:12:30.560Z,1000.21
2023-01-05T12:13:30.502Z,1000.23
2023-01-05T12:14:30.490Z,1000.24
2023-01-05T12:15:30.486Z,1000.23
2023-01-05T12:16:30.538Z,1000.24
2023-01-05T12:17:30.467Z,1000.18
2023-01-05T12:18:30.474Z,1000.18
2023-01-05T12:19:30.441Z,1000.16
2023-01-05T12:20:30.461Z,1000.15
2023-01-05T12:21:30.427Z,1000.16
2023-01-05T12:22:30.409Z,1000.11
2023-01-05T12:23:30.415Z,1000.11
2023-01-05T12:24:30.389Z,1000.07